Buoy 51819

sailwx.info

Track history (hours):
 
Tides and Currents Weather Stations Pressure Air Temp Water Temp Dewpoint Dewpoint Depression Visibility Wind Speed Wind Dir Waves Ship Positions

Min Pu Yu 51819

Last reported at 2018-Feb-19 16:30 UTC. Time now 2018-Feb-19 18:09 UTC.
Position N 11°49' W 098°16'.

Length 26 m.

Type: Fishing. MMSI: 412448202.

Air temperature -0.0 ° C
Water temperature 27.2 ° C

Date/timePositionNaut miles runAvg speedWind from/ knotsBaromVisibWave heightAir tempDewpointWater temp
2018-Feb-19 16:30N 11°49' W 098°16'1 1.2 -0.0 27.2
2018-Feb-19 16:00N 11°50' W 098°16'1 1.2 -0.0 27.2
2018-Feb-19 15:30N 11°50' W 098°16'1 0.6 -0.0 27.1
2018-Feb-19 14:30N 11°50' W 098°15'0 0.0 -0.0 27.1
2018-Feb-19 14:00N 11°50' W 098°15'1 1.2 -0.0 27.1
2018-Feb-19 13:30N 11°50' W 098°14'1 0.6 -0.0 27.1
2018-Feb-19 12:30N 11°50' W 098°14'0 0.0 -0.0 27.1
2018-Feb-19 12:00N 11°50' W 098°14'1 1.2 -0.0 27.1
2018-Feb-19 11:30N 11°50' W 098°14'0 0.0 -0.0 27.1
2018-Feb-19 10:00N 11°50' W 098°14'0 0.0 -0.0 27.1
2018-Feb-19 09:00N 11°50' W 098°14'2 0.4 -0.0 27.1
2018-Feb-19 04:30N 11°50' W 098°12'0 0.0 -0.0 27.2
2018-Feb-19 04:00N 11°50' W 098°12'1 1.7 -0.0 27.2
2018-Feb-19 03:30N 11°49' W 098°11'0 0.0 -0.0 27.2
2018-Feb-19 03:00N 11°49' W 098°11'1 0.6 -0.0 27.2
2018-Feb-19 02:00N 11°49' W 098°11'1 1.2 -0.0 27.2
2018-Feb-19 01:30N 11°49' W 098°10'1 1.2 -0.0 27.2
2018-Feb-19 01:00N 11°49' W 098°10'0 0.0 -0.0 27.2
2018-Feb-19 00:30N 11°49' W 098°10'1 1.7 -0.0 27.3
2018-Feb-19 00:00N 11°49' W 098°09'0 0.0 -0.0 27.3
2018-Feb-18 23:30N 11°49' W 098°09'1 1.2 -0.0 27.4
2018-Feb-18 23:00N 11°49' W 098°08'1 0.4 -0.0 27.4
2018-Feb-18 21:30N 11°49' W 098°08'1 1.2 -0.0 27.4
2018-Feb-18 21:00N 11°49' W 098°07'0 0.0 -0.0 27.5
2018-Feb-18 20:30N 11°49' W 098°07'2 0.8 -0.0 27.5
2018-Feb-18 17:30N 11°48' W 098°05'1 0.9 -0.0 27.2
2018-Feb-18 16:00N 11°49' W 098°04'1 0.8 -0.0 27.0
2018-Feb-18 15:00N 11°48' W 098°03'1 1.2 -0.0 26.9
2018-Feb-18 14:30N 11°48' W 098°02'2 1.2 -0.0 26.9
2018-Feb-18 13:00N 11°48' W 098°01'1 0.6 -0.0 26.9
2018-Feb-18 12:00N 11°48' W 098°00'1 1.2 -0.0 26.9
2018-Feb-18 11:30N 11°48' W 097°59'1 1.7 -0.0 26.9
2018-Feb-18 11:00N 11°47' W 097°59'1 1.2 -0.0 26.9
2018-Feb-18 10:30N 11°47' W 097°58'0 0.0 -0.0 26.9
2018-Feb-18 10:00N 11°47' W 097°58'1 1.3 -0.0 26.9
2018-Feb-18 09:00N 11°48' W 097°57'3 0.7 -0.0 26.9
2018-Feb-18 05:00N 11°48' W 097°54'0 0.0 -0.0 27.0
2018-Feb-18 04:30N 11°48' W 097°54'1 1.2 -0.0 27.0
2018-Feb-18 04:00N 11°48' W 097°53'1 1.2 -0.0 27.0
2018-Feb-18 03:30N 11°48' W 097°53'1 0.8 -0.0 27.0
2018-Feb-18 02:30N 11°47' W 097°52'1 1.2 -0.0 27.0
2018-Feb-18 02:00N 11°47' W 097°52'2 1.8 -0.0 27.0
2018-Feb-18 01:00N 11°47' W 097°50'1 1.2 -0.0 27.0
2018-Feb-18 00:30N 11°47' W 097°49'1 1.2 -0.0 27.1
2018-Feb-18 00:00N 11°47' W 097°49'1 1.3 -0.0 27.1
2018-Feb-17 23:00N 11°48' W 097°47'1 0.6 -0.0 27.2
2018-Feb-17 22:00N 11°48' W 097°47'1 1.7 -0.0 27.2
2018-Feb-17 21:30N 11°49' W 097°46'4 0.9 -0.0 27.2
2018-Feb-17 17:00N 11°50' W 097°43'1 0.8 -0.0 26.9
2018-Feb-17 16:00N 11°51' W 097°42'0 0.0 -0.0 26.8
2018-Feb-17 15:30N 11°51' W 097°42'1 1.2 -0.0 26.8
2018-Feb-17 15:00N 11°51' W 097°41'1 1.2 -0.0 26.8
2018-Feb-17 14:30N 11°52' W 097°41'1 1.2 -0.0 26.8
2018-Feb-17 14:00N 11°52' W 097°41'0 0.0 -0.0 26.8
2018-Feb-17 13:30N 11°52' W 097°41'1 1.2 -0.0 26.8
2018-Feb-17 13:00N 11°52' W 097°40'1 1.2 -0.0 26.8
2018-Feb-17 12:30N 11°52' W 097°40'1 1.2 -0.0 26.8
2018-Feb-17 12:00N 11°52' W 097°40'0 0.0 -0.0 26.8
2018-Feb-17 11:30N 11°52' W 097°40'1 1.2 -0.0 26.8
2018-Feb-17 11:00N 11°52' W 097°39'1 1.2 -0.0 26.8
2018-Feb-17 10:30N 11°53' W 097°39'0 0.0 -0.0 26.8
2018-Feb-17 10:00N 11°53' W 097°39'1 1.2 -0.0 26.8
2018-Feb-17 09:30N 11°53' W 097°38'2 0.4 -0.0 26.8
2018-Feb-17 04:30N 11°52' W 097°37'0 0.0 -0.0 26.9
2018-Feb-17 03:30N 11°52' W 097°37'1 1.2 -0.0 26.9
2018-Feb-17 03:00N 11°52' W 097°36'1 1.2 -0.0 26.9
2018-Feb-17 02:30N 11°52' W 097°35'1 1.2 -0.0 26.9
2018-Feb-17 02:00N 11°52' W 097°35'1 1.2 -0.0 27.0
2018-Feb-17 01:30N 11°52' W 097°35'1 1.2 -0.0 27.0
2018-Feb-17 01:00N 11°52' W 097°34'1 1.2 -0.0 27.0
2018-Feb-17 00:30N 11°52' W 097°34'1 1.7 -0.0 27.0
2018-Feb-17 00:00N 11°51' W 097°33'1 1.2 -0.0 27.1
2018-Feb-16 23:30N 11°51' W 097°32'0 0.0 -0.0 27.1
2018-Feb-16 23:00N 11°51' W 097°32'4 0.9 -0.0 27.1
2018-Feb-16 19:00N 11°50' W 097°29'2 0.8 -0.0 27.1
2018-Feb-16 16:00N 11°50' W 097°26'1 0.6 -0.0 26.9
2018-Feb-16 15:00N 11°50' W 097°26'1 1.3 -0.0 26.8
2018-Feb-16 14:00N 11°49' W 097°25'0 0.0 -0.0 26.8
2018-Feb-16 13:30N 11°49' W 097°25'1 0.6 -0.0 26.8
2018-Feb-16 12:30N 11°49' W 097°24'1 1.2 -0.0 26.8
2018-Feb-16 12:00N 11°49' W 097°23'1 0.9 -0.0 26.8
2018-Feb-16 10:30N 11°49' W 097°22'2 1.0 -0.0 26.8
2018-Feb-16 08:00N 11°48' W 097°20'4 1.2 -0.0 26.9
2018-Feb-16 05:00N 11°47' W 097°16'1 1.2 -0.0 26.9
2018-Feb-16 04:00N 11°47' W 097°15'0 0.0 -0.0 26.9
2018-Feb-16 03:30N 11°47' W 097°15'1 1.2 -0.0 26.9
2018-Feb-16 02:30N 11°47' W 097°14'1 1.2 -0.0 26.9
2018-Feb-16 02:00N 11°47' W 097°13'1 1.2 -0.0 26.9
2018-Feb-16 01:30N 11°47' W 097°13'1 1.2 -0.0 26.9
2018-Feb-16 01:00N 11°47' W 097°12'1 1.3 -0.0 26.9
2018-Feb-16 00:00N 11°47' W 097°11'1 1.2 -0.0 26.9
2018-Feb-15 23:30N 11°47' W 097°10'1 1.7 -0.0 26.9
2018-Feb-15 23:00N 11°48' W 097°10'1 1.3 -0.0 27.0
2018-Feb-15 22:00N 11°49' W 097°08'2 1.2 -0.0 27.0
2018-Feb-15 20:30N 11°49' W 097°07'4 1.1 -0.0 26.9
2018-Feb-15 17:00N 11°52' W 097°04'2 0.9 -0.0 26.8
2018-Feb-15 15:00N 11°53' W 097°03'0 0.0 -0.0 26.8
2018-Feb-15 14:30N 11°53' W 097°03'1 1.2 -0.0 26.8
2018-Feb-15 14:00N 11°53' W 097°02'0 0.0 -0.0 26.8
2018-Feb-15 13:30N 11°53' W 097°02'0 0.0 -0.0 26.8
2018-Feb-15 13:00N 11°53' W 097°02'1 1.2 -0.0 26.8
2018-Feb-15 12:30N 11°54' W 097°02'1 0.4 -0.0 26.8
2018-Feb-15 11:00N 11°54' W 097°02'1 1.7 -0.0 26.8
2018-Feb-15 10:30N 11°53' W 097°01'0 0.0 -0.0 26.8
2018-Feb-15 10:00N 11°53' W 097°01'0 0.0 -0.0 26.8
2018-Feb-15 09:00N 11°53' W 097°01'0 0.0 -0.0 26.9
2018-Feb-15 08:00N 11°53' W 097°01'1 0.4 -0.0 26.9
2018-Feb-15 04:30N 11°52' W 097°01'0 0.0 -0.0 26.9
2018-Feb-15 03:30N 11°52' W 097°01'1 0.8 -0.0 26.9
2018-Feb-15 02:30N 11°52' W 097°00'1 0.6 -0.0 26.9
2018-Feb-15 01:30N 11°51' W 097°00'1 1.2 -0.0 26.9
2018-Feb-15 01:00N 11°51' W 096°59'1 0.8 -0.0 26.9
2018-Feb-15 00:00N 11°50' W 096°59'1 0.8 -0.0 27.0
2018-Feb-14 23:00N 11°50' W 096°58'1 0.8 -0.0 27.0
2018-Feb-14 22:00N 11°49' W 096°58'1 0.8 -0.0 27.0
2018-Feb-14 21:00N 11°49' W 096°57'1 1.2 -0.0 27.0
2018-Feb-14 20:30N 11°49' W 096°56'3 0.7 -0.0 27.0
2018-Feb-14 16:30N 11°47' W 096°54'1 0.8 -0.0 26.9
2018-Feb-14 15:30N 11°47' W 096°53'1 1.7 -0.0 26.8
2018-Feb-14 15:00N 11°46' W 096°53'1 1.3 -0.0 26.8
2018-Feb-14 14:00N 11°46' W 096°52'1 1.2 -0.0 26.8
2018-Feb-14 13:30N 11°46' W 096°51'1 1.7 -0.0 26.8
2018-Feb-14 13:00N 11°45' W 096°50'1 0.6 -0.0 26.8
2018-Feb-14 12:00N 11°45' W 096°50'1 1.7 -0.0 26.8
2018-Feb-14 11:30N 11°44' W 096°49'1 1.2 -0.0 26.8
2018-Feb-14 11:00N 11°44' W 096°49'1 1.2 -0.0 26.8
2018-Feb-14 10:00N 11°44' W 096°47'1 1.7 -0.0 26.8
2018-Feb-14 09:30N 11°44' W 096°47'4 0.8 -0.0 26.8
2018-Feb-14 04:30N 11°44' W 096°43'1 1.2 -0.0 26.9
2018-Feb-14 04:00N 11°44' W 096°42'1 0.6 -0.0 26.9
2018-Feb-14 03:00N 11°44' W 096°41'1 0.6 -0.0 26.9
2018-Feb-14 02:00N 11°44' W 096°41'1 1.2 -0.0 26.9
2018-Feb-14 01:00N 11°44' W 096°40'1 1.2 -0.0 27.0
2018-Feb-14 00:30N 11°44' W 096°40'2 1.2 -0.0 27.0
2018-Feb-13 23:00N 11°44' W 096°38'1 1.2 -0.0 27.0
2018-Feb-13 22:30N 11°44' W 096°37'1 0.8 -0.0 27.0
2018-Feb-13 21:30N 11°45' W 096°37'1 1.2 -0.0 27.0
2018-Feb-13 20:30N 11°45' W 096°35'2 0.8 -0.0 27.0
2018-Feb-13 17:30N 11°46' W 096°33'1 0.4 -0.0 26.9
2018-Feb-13 16:00N 11°46' W 096°32'1 1.7 -0.0 26.9
2018-Feb-13 15:30N 11°46' W 096°32'0 0.0 -0.0 26.9
2018-Feb-13 15:00N 11°46' W 096°32'1 0.8 -0.0 26.9
2018-Feb-13 14:00N 11°47' W 096°31'1 1.2 -0.0 26.9
2018-Feb-13 13:30N 11°47' W 096°31'0 0.0 -0.0 26.9
2018-Feb-13 13:00N 11°47' W 096°31'1 0.8 -0.0 26.9
2018-Feb-13 12:00N 11°47' W 096°30'1 0.6 -0.0 26.9
2018-Feb-13 11:00N 11°47' W 096°29'1 0.6 -0.0 27.0
2018-Feb-13 10:00N 11°47' W 096°29'1 1.2 -0.0 27.0
2018-Feb-13 09:30N 11°47' W 096°28'1 0.2 -0.0 27.0
2018-Feb-13 05:00N 11°47' W 096°28'1 0.4 -0.0 27.1
2018-Feb-13 03:30N 11°46' W 096°28'1 1.2 -0.0 27.2
2018-Feb-13 03:00N 11°46' W 096°27'1 0.6 -0.0 27.3
2018-Feb-13 02:00N 11°46' W 096°27'1 1.2 -0.0 27.3
2018-Feb-13 01:30N 11°46' W 096°26'0 0.0 -0.0 27.4
2018-Feb-13 01:00N 11°46' W 096°26'1 0.6 -0.0 27.4
2018-Feb-13 00:00N 11°46' W 096°26'1 1.2 -0.0 27.5
2018-Feb-12 23:30N 11°45' W 096°26'1 0.6 -0.0 27.6
2018-Feb-12 22:30N 11°45' W 096°25'1 0.9 -0.0 27.6
2018-Feb-12 21:00N 11°44' W 096°24'0 0.0 -0.0 27.5
2018-Feb-12 20:00N 11°44' W 096°24'1 0.4 -0.0 27.4
2018-Feb-12 17:00N 11°44' W 096°23'0 0.0 -0.0 27.0
2018-Feb-12 16:00N 11°44' W 096°23'0 0.0 -0.0 26.9
2018-Feb-12 15:30N 11°44' W 096°23'1 0.8 -0.0 26.9
2018-Feb-12 14:30N 11°44' W 096°22'0 0.0 -0.0 26.9
2018-Feb-12 14:00N 11°44' W 096°22'0 0.0 -0.0 26.9
2018-Feb-12 13:00N 11°44' W 096°22'0 0.0 -0.0 26.9
2018-Feb-12 12:30N 11°44' W 096°22'0 0.0 -0.0 26.9
2018-Feb-12 11:30N 11°44' W 096°22'0 0.0 -0.0 26.9
2018-Feb-12 11:00N 11°44' W 096°22'1 0.6 -0.0 26.9
2018-Feb-12 10:00N 11°43' W 096°22'0 0.0 -0.0 26.9
2018-Feb-12 09:30N 11°43' W 096°22'2 0.3 -0.0 26.9
2018-Feb-12 03:00N 11°42' W 096°21'1 0.6 -0.0 27.0
2018-Feb-12 02:00N 11°42' W 096°20'1 1.2 -0.0 27.1
2018-Feb-12 01:30N 11°41' W 096°20'0 0.0 -0.0 27.1
2018-Feb-12 01:00N 11°41' W 096°20'0 0.0 -0.0 27.1
2018-Feb-12 00:00N 11°41' W 096°20'1 0.6 -0.0 27.3
2018-Feb-11 23:00N 11°41' W 096°20'1 1.2 -0.0 27.4
2018-Feb-11 22:30N 11°41' W 096°20'1 0.4 -0.0 27.4
2018-Feb-11 21:00N 11°41' W 096°19'1 0.6 -0.0 27.5
2018-Feb-11 20:00N 11°40' W 096°19'1 0.4 -0.0 27.6
2018-Feb-11 16:30N 11°39' W 096°19'0 0.0 -0.0 27.0
2018-Feb-11 16:00N 11°39' W 096°19'0 0.0 -0.0 27.0
2018-Feb-11 15:00N 11°39' W 096°19'1 1.2 -0.0 26.9
2018-Feb-11 14:30N 11°38' W 096°19'0 0.0 -0.0 26.8
2018-Feb-11 14:00N 11°38' W 096°19'0 0.0 -0.0 26.8
2018-Feb-11 13:30N 11°38' W 096°19'0 0.0 -0.0 26.8
2018-Feb-11 13:00N 11°38' W 096°19'1 0.6 -0.0 26.8
2018-Feb-11 12:00N 11°38' W 096°19'0 0.0 -0.0 26.8
2018-Feb-11 11:30N 11°38' W 096°19'1 0.6 -0.0 26.8
2018-Feb-11 10:00N 11°37' W 096°18'1 0.6 -0.0 26.8
2018-Feb-11 09:00N 11°37' W 096°18'2 0.3 -0.0 26.9
2018-Feb-11 04:00N 11°35' W 096°17'0 0.0 -0.0 26.9
2018-Feb-11 03:30N 11°35' W 096°17'1 0.8 -0.0 26.9
2018-Feb-11 02:30N 11°35' W 096°16'0 0.0 -0.0 26.9
2018-Feb-11 02:00N 11°35' W 096°16'0 0.0 -0.0 26.9
2018-Feb-11 01:30N 11°35' W 096°16'1 0.8 -0.0 27.0
2018-Feb-11 00:30N 11°34' W 096°16'1 0.6 -0.0 27.0
2018-Feb-10 23:30N 11°34' W 096°15'0 0.0 -0.0 27.0
2018-Feb-10 23:00N 11°34' W 096°15'1 0.6 -0.0 27.1
2018-Feb-10 22:00N 11°34' W 096°14'1 1.2 -0.0 27.1
2018-Feb-10 21:30N 11°34' W 096°14'0 0.0 -0.0 27.1
2018-Feb-10 20:30N 11°34' W 096°14'1 1.7 -0.0 27.1
2018-Feb-10 20:00N 11°34' W 096°13'1 0.3 -0.0 27.0
2018-Feb-10 17:00N 11°34' W 096°13'1 1.2 -0.0 26.9
2018-Feb-10 16:30N 11°34' W 096°12'0 0.0 -0.0 26.9
2018-Feb-10 16:00N 11°34' W 096°12'0 0.0 -0.0 26.9
2018-Feb-10 14:30N 11°34' W 096°12'0 0.0 -0.0 26.8
2018-Feb-10 13:30N 11°34' W 096°12'0 0.0 -0.0 26.8
2018-Feb-10 12:00N 11°34' W 096°12'0 0.0 -0.0 26.8
2018-Feb-10 11:30N 11°34' W 096°12'0 0.0 -0.0 26.8
2018-Feb-10 10:30N 11°34' W 096°12'0 0.0 -0.0 26.9
2018-Feb-10 10:00N 11°34' W 096°12'1 0.8 -0.0 26.9
2018-Feb-10 09:00N 11°34' W 096°13'0 0.0 -0.0 26.9
2018-Feb-10 07:30N 11°34' W 096°13'1 0.4 -0.0 26.9
2018-Feb-10 04:30N 11°32' W 096°12'1 0.6 -0.0 26.9
2018-Feb-10 03:30N 11°32' W 096°12'0 0.0 -0.0 26.9
2018-Feb-10 03:00N 11°32' W 096°12'0 0.0 -0.0 26.9
2018-Feb-10 02:00N 11°32' W 096°12'1 0.8 -0.0 26.9
2018-Feb-10 01:00N 11°31' W 096°11'0 0.0 -0.0 26.9
2018-Feb-10 00:31N 11°31' W 096°11'0 0.0 -0.0 26.9
2018-Feb-10 00:30N 11°31' W 096°11'0 0.0 -0.0 26.9
2018-Feb-10 00:00N 11°31' W 096°11'0 0.0 -0.0 26.9
2018-Feb-09 23:00N 11°31' W 096°11'1 0.6 -0.0 27.0
2018-Feb-09 22:00N 11°31' W 096°11'1 1.2 -0.0 27.0
2018-Feb-09 21:30N 11°31' W 096°11'1 0.2 -0.0 27.0
2018-Feb-09 16:30N 11°30' W 096°10'   -0.0 26.8
Track history (hours):
 
Tides and Currents Weather Stations Pressure Air Temp Water Temp Dewpoint Dewpoint Depression Visibility Wind Speed Wind Dir Waves Ship Positions

Min Pu Yu 51819

Last reported at 2018-Feb-19 16:30 UTC. Time now 2018-Feb-19 18:09 UTC.
Position N 11°49' W 098°16'.

Length 26 m.

Type: Fishing. MMSI: 412448202.

Air temperature -0.0 ° C
Water temperature 27.2 ° C

Date/timePositionNaut miles runAvg speedWind from/ knotsBaromVisibWave heightAir tempDewpointWater temp
2018-Feb-19 16:30N 11°49' W 098°16'1 1.2 -0.0 27.2
2018-Feb-19 16:00N 11°50' W 098°16'1 1.2 -0.0 27.2
2018-Feb-19 15:30N 11°50' W 098°16'1 0.6 -0.0 27.1
2018-Feb-19 14:30N 11°50' W 098°15'0 0.0 -0.0 27.1
2018-Feb-19 14:00N 11°50' W 098°15'1 1.2 -0.0 27.1
2018-Feb-19 13:30N 11°50' W 098°14'1 0.6 -0.0 27.1
2018-Feb-19 12:30N 11°50' W 098°14'0 0.0 -0.0 27.1
2018-Feb-19 12:00N 11°50' W 098°14'1 1.2 -0.0 27.1
2018-Feb-19 11:30N 11°50' W 098°14'0 0.0 -0.0 27.1
2018-Feb-19 10:00N 11°50' W 098°14'0 0.0 -0.0 27.1
2018-Feb-19 09:00N 11°50' W 098°14'2 0.4 -0.0 27.1
2018-Feb-19 04:30N 11°50' W 098°12'0 0.0 -0.0 27.2
2018-Feb-19 04:00N 11°50' W 098°12'1 1.7 -0.0 27.2
2018-Feb-19 03:30N 11°49' W 098°11'0 0.0 -0.0 27.2
2018-Feb-19 03:00N 11°49' W 098°11'1 0.6 -0.0 27.2
2018-Feb-19 02:00N 11°49' W 098°11'1 1.2 -0.0 27.2
2018-Feb-19 01:30N 11°49' W 098°10'1 1.2 -0.0 27.2
2018-Feb-19 01:00N 11°49' W 098°10'0 0.0 -0.0 27.2
2018-Feb-19 00:30N 11°49' W 098°10'1 1.7 -0.0 27.3
2018-Feb-19 00:00N 11°49' W 098°09'0 0.0 -0.0 27.3
2018-Feb-18 23:30N 11°49' W 098°09'1 1.2 -0.0 27.4
2018-Feb-18 23:00N 11°49' W 098°08'1 0.4 -0.0 27.4
2018-Feb-18 21:30N 11°49' W 098°08'1 1.2 -0.0 27.4
2018-Feb-18 21:00N 11°49' W 098°07'0 0.0 -0.0 27.5
2018-Feb-18 20:30N 11°49' W 098°07'2 0.8 -0.0 27.5
2018-Feb-18 17:30N 11°48' W 098°05'1 0.9 -0.0 27.2
2018-Feb-18 16:00N 11°49' W 098°04'1 0.8 -0.0 27.0
2018-Feb-18 15:00N 11°48' W 098°03'1 1.2 -0.0 26.9
2018-Feb-18 14:30N 11°48' W 098°02'2 1.2 -0.0 26.9
2018-Feb-18 13:00N 11°48' W 098°01'1 0.6 -0.0 26.9
2018-Feb-18 12:00N 11°48' W 098°00'1 1.2 -0.0 26.9
2018-Feb-18 11:30N 11°48' W 097°59'1 1.7 -0.0 26.9
2018-Feb-18 11:00N 11°47' W 097°59'1 1.2 -0.0 26.9
2018-Feb-18 10:30N 11°47' W 097°58'0 0.0 -0.0 26.9
2018-Feb-18 10:00N 11°47' W 097°58'1 1.3 -0.0 26.9
2018-Feb-18 09:00N 11°48' W 097°57'3 0.7 -0.0 26.9
2018-Feb-18 05:00N 11°48' W 097°54'0 0.0 -0.0 27.0
2018-Feb-18 04:30N 11°48' W 097°54'1 1.2 -0.0 27.0
2018-Feb-18 04:00N 11°48' W 097°53'1 1.2 -0.0 27.0
2018-Feb-18 03:30N 11°48' W 097°53'1 0.8 -0.0 27.0
2018-Feb-18 02:30N 11°47' W 097°52'1 1.2 -0.0 27.0
2018-Feb-18 02:00N 11°47' W 097°52'2 1.8 -0.0 27.0
2018-Feb-18 01:00N 11°47' W 097°50'1 1.2 -0.0 27.0
2018-Feb-18 00:30N 11°47' W 097°49'1 1.2 -0.0 27.1
2018-Feb-18 00:00N 11°47' W 097°49'1 1.3 -0.0 27.1
2018-Feb-17 23:00N 11°48' W 097°47'1 0.6 -0.0 27.2
2018-Feb-17 22:00N 11°48' W 097°47'1 1.7 -0.0 27.2
2018-Feb-17 21:30N 11°49' W 097°46'4 0.9 -0.0 27.2
2018-Feb-17 17:00N 11°50' W 097°43'1 0.8 -0.0 26.9
2018-Feb-17 16:00N 11°51' W 097°42'0 0.0 -0.0 26.8
2018-Feb-17 15:30N 11°51' W 097°42'1 1.2 -0.0 26.8
2018-Feb-17 15:00N 11°51' W 097°41'1 1.2 -0.0 26.8
2018-Feb-17 14:30N 11°52' W 097°41'1 1.2 -0.0 26.8
2018-Feb-17 14:00N 11°52' W 097°41'0 0.0 -0.0 26.8
2018-Feb-17 13:30N 11°52' W 097°41'1 1.2 -0.0 26.8
2018-Feb-17 13:00N 11°52' W 097°40'1 1.2 -0.0 26.8
2018-Feb-17 12:30N 11°52' W 097°40'1 1.2 -0.0 26.8
2018-Feb-17 12:00N 11°52' W 097°40'0 0.0 -0.0 26.8
2018-Feb-17 11:30N 11°52' W 097°40'1 1.2 -0.0 26.8
2018-Feb-17 11:00N 11°52' W 097°39'1 1.2 -0.0 26.8
2018-Feb-17 10:30N 11°53' W 097°39'0 0.0 -0.0 26.8
2018-Feb-17 10:00N 11°53' W 097°39'1 1.2 -0.0 26.8
2018-Feb-17 09:30N 11°53' W 097°38'2 0.4 -0.0 26.8
2018-Feb-17 04:30N 11°52' W 097°37'0 0.0 -0.0 26.9
2018-Feb-17 03:30N 11°52' W 097°37'1 1.2 -0.0 26.9
2018-Feb-17 03:00N 11°52' W 097°36'1 1.2 -0.0 26.9
2018-Feb-17 02:30N 11°52' W 097°35'1 1.2 -0.0 26.9
2018-Feb-17 02:00N 11°52' W 097°35'1 1.2 -0.0 27.0
2018-Feb-17 01:30N 11°52' W 097°35'1 1.2 -0.0 27.0
2018-Feb-17 01:00N 11°52' W 097°34'1 1.2 -0.0 27.0
2018-Feb-17 00:30N 11°52' W 097°34'1 1.7 -0.0 27.0
2018-Feb-17 00:00N 11°51' W 097°33'1 1.2 -0.0 27.1
2018-Feb-16 23:30N 11°51' W 097°32'0 0.0 -0.0 27.1
2018-Feb-16 23:00N 11°51' W 097°32'4 0.9 -0.0 27.1
2018-Feb-16 19:00N 11°50' W 097°29'2 0.8 -0.0 27.1
2018-Feb-16 16:00N 11°50' W 097°26'1 0.6 -0.0 26.9
2018-Feb-16 15:00N 11°50' W 097°26'1 1.3 -0.0 26.8
2018-Feb-16 14:00N 11°49' W 097°25'0 0.0 -0.0 26.8
2018-Feb-16 13:30N 11°49' W 097°25'1 0.6 -0.0 26.8
2018-Feb-16 12:30N 11°49' W 097°24'1 1.2 -0.0 26.8
2018-Feb-16 12:00N 11°49' W 097°23'1 0.9 -0.0 26.8
2018-Feb-16 10:30N 11°49' W 097°22'2 1.0 -0.0 26.8
2018-Feb-16 08:00N 11°48' W 097°20'4 1.2 -0.0 26.9
2018-Feb-16 05:00N 11°47' W 097°16'1 1.2 -0.0 26.9
2018-Feb-16 04:00N 11°47' W 097°15'0 0.0 -0.0 26.9
2018-Feb-16 03:30N 11°47' W 097°15'1 1.2 -0.0 26.9
2018-Feb-16 02:30N 11°47' W 097°14'1 1.2 -0.0 26.9
2018-Feb-16 02:00N 11°47' W 097°13'1 1.2 -0.0 26.9
2018-Feb-16 01:30N 11°47' W 097°13'1 1.2 -0.0 26.9
2018-Feb-16 01:00N 11°47' W 097°12'1 1.3 -0.0 26.9
2018-Feb-16 00:00N 11°47' W 097°11'1 1.2 -0.0 26.9
2018-Feb-15 23:30N 11°47' W 097°10'1 1.7 -0.0 26.9
2018-Feb-15 23:00N 11°48' W 097°10'1 1.3 -0.0 27.0
2018-Feb-15 22:00N 11°49' W 097°08'2 1.2 -0.0 27.0
2018-Feb-15 20:30N 11°49' W 097°07'4 1.1 -0.0 26.9
2018-Feb-15 17:00N 11°52' W 097°04'2 0.9 -0.0 26.8
2018-Feb-15 15:00N 11°53' W 097°03'0 0.0 -0.0 26.8
2018-Feb-15 14:30N 11°53' W 097°03'1 1.2 -0.0 26.8
2018-Feb-15 14:00N 11°53' W 097°02'0 0.0 -0.0 26.8
2018-Feb-15 13:30N 11°53' W 097°02'0 0.0 -0.0 26.8
2018-Feb-15 13:00N 11°53' W 097°02'1 1.2 -0.0 26.8
2018-Feb-15 12:30N 11°54' W 097°02'1 0.4 -0.0 26.8
2018-Feb-15 11:00N 11°54' W 097°02'1 1.7 -0.0 26.8
2018-Feb-15 10:30N 11°53' W 097°01'0 0.0 -0.0 26.8
2018-Feb-15 10:00N 11°53' W 097°01'0 0.0 -0.0 26.8
2018-Feb-15 09:00N 11°53' W 097°01'0 0.0 -0.0 26.9
2018-Feb-15 08:00N 11°53' W 097°01'1 0.4 -0.0 26.9
2018-Feb-15 04:30N 11°52' W 097°01'0 0.0 -0.0 26.9
2018-Feb-15 03:30N 11°52' W 097°01'1 0.8 -0.0 26.9
2018-Feb-15 02:30N 11°52' W 097°00'1 0.6 -0.0 26.9
2018-Feb-15 01:30N 11°51' W 097°00'1 1.2 -0.0 26.9
2018-Feb-15 01:00N 11°51' W 096°59'1 0.8 -0.0 26.9
2018-Feb-15 00:00N 11°50' W 096°59'1 0.8 -0.0 27.0
2018-Feb-14 23:00N 11°50' W 096°58'1 0.8 -0.0 27.0
2018-Feb-14 22:00N 11°49' W 096°58'1 0.8 -0.0 27.0
2018-Feb-14 21:00N 11°49' W 096°57'1 1.2 -0.0 27.0
2018-Feb-14 20:30N 11°49' W 096°56'3 0.7 -0.0 27.0
2018-Feb-14 16:30N 11°47' W 096°54'1 0.8 -0.0 26.9
2018-Feb-14 15:30N 11°47' W 096°53'1 1.7 -0.0 26.8
2018-Feb-14 15:00N 11°46' W 096°53'1 1.3 -0.0 26.8
2018-Feb-14 14:00N 11°46' W 096°52'1 1.2 -0.0 26.8
2018-Feb-14 13:30N 11°46' W 096°51'1 1.7 -0.0 26.8
2018-Feb-14 13:00N 11°45' W 096°50'1 0.6 -0.0 26.8
2018-Feb-14 12:00N 11°45' W 096°50'1 1.7 -0.0 26.8
2018-Feb-14 11:30N 11°44' W 096°49'1 1.2 -0.0 26.8
2018-Feb-14 11:00N 11°44' W 096°49'1 1.2 -0.0 26.8
2018-Feb-14 10:00N 11°44' W 096°47'1 1.7 -0.0 26.8
2018-Feb-14 09:30N 11°44' W 096°47'4 0.8 -0.0 26.8
2018-Feb-14 04:30N 11°44' W 096°43'1 1.2 -0.0 26.9
2018-Feb-14 04:00N 11°44' W 096°42'1 0.6 -0.0 26.9
2018-Feb-14 03:00N 11°44' W 096°41'1 0.6 -0.0 26.9
2018-Feb-14 02:00N 11°44' W 096°41'1 1.2 -0.0 26.9
2018-Feb-14 01:00N 11°44' W 096°40'1 1.2 -0.0 27.0
2018-Feb-14 00:30N 11°44' W 096°40'2 1.2 -0.0 27.0
2018-Feb-13 23:00N 11°44' W 096°38'1 1.2 -0.0 27.0
2018-Feb-13 22:30N 11°44' W 096°37'1 0.8 -0.0 27.0
2018-Feb-13 21:30N 11°45' W 096°37'1 1.2 -0.0 27.0
2018-Feb-13 20:30N 11°45' W 096°35'2 0.8 -0.0 27.0
2018-Feb-13 17:30N 11°46' W 096°33'1 0.4 -0.0 26.9
2018-Feb-13 16:00N 11°46' W 096°32'1 1.7 -0.0 26.9
2018-Feb-13 15:30N 11°46' W 096°32'0 0.0 -0.0 26.9
2018-Feb-13 15:00N 11°46' W 096°32'1 0.8 -0.0 26.9
2018-Feb-13 14:00N 11°47' W 096°31'1 1.2 -0.0 26.9
2018-Feb-13 13:30N 11°47' W 096°31'0 0.0 -0.0 26.9
2018-Feb-13 13:00N 11°47' W 096°31'1 0.8 -0.0 26.9
2018-Feb-13 12:00N 11°47' W 096°30'1 0.6 -0.0 26.9
2018-Feb-13 11:00N 11°47' W 096°29'1 0.6 -0.0 27.0
2018-Feb-13 10:00N 11°47' W 096°29'1 1.2 -0.0 27.0
2018-Feb-13 09:30N 11°47' W 096°28'1 0.2 -0.0 27.0
2018-Feb-13 05:00N 11°47' W 096°28'1 0.4 -0.0 27.1
2018-Feb-13 03:30N 11°46' W 096°28'1 1.2 -0.0 27.2
2018-Feb-13 03:00N 11°46' W 096°27'1 0.6 -0.0 27.3
2018-Feb-13 02:00N 11°46' W 096°27'1 1.2 -0.0 27.3
2018-Feb-13 01:30N 11°46' W 096°26'0 0.0 -0.0 27.4
2018-Feb-13 01:00N 11°46' W 096°26'1 0.6 -0.0 27.4
2018-Feb-13 00:00N 11°46' W 096°26'1 1.2 -0.0 27.5
2018-Feb-12 23:30N 11°45' W 096°26'1 0.6 -0.0 27.6
2018-Feb-12 22:30N 11°45' W 096°25'1 0.9 -0.0 27.6
2018-Feb-12 21:00N 11°44' W 096°24'0 0.0 -0.0 27.5
2018-Feb-12 20:00N 11°44' W 096°24'1 0.4 -0.0 27.4
2018-Feb-12 17:00N 11°44' W 096°23'0 0.0 -0.0 27.0
2018-Feb-12 16:00N 11°44' W 096°23'0 0.0 -0.0 26.9
2018-Feb-12 15:30N 11°44' W 096°23'1 0.8 -0.0 26.9
2018-Feb-12 14:30N 11°44' W 096°22'0 0.0 -0.0 26.9
2018-Feb-12 14:00N 11°44' W 096°22'0 0.0 -0.0 26.9
2018-Feb-12 13:00N 11°44' W 096°22'0 0.0 -0.0 26.9
2018-Feb-12 12:30N 11°44' W 096°22'0 0.0 -0.0 26.9
2018-Feb-12 11:30N 11°44' W 096°22'0 0.0 -0.0 26.9
2018-Feb-12 11:00N 11°44' W 096°22'1 0.6 -0.0 26.9
2018-Feb-12 10:00N 11°43' W 096°22'0 0.0 -0.0 26.9
2018-Feb-12 09:30N 11°43' W 096°22'2 0.3 -0.0 26.9
2018-Feb-12 03:00N 11°42' W 096°21'1 0.6 -0.0 27.0
2018-Feb-12 02:00N 11°42' W 096°20'1 1.2 -0.0 27.1
2018-Feb-12 01:30N 11°41' W 096°20'0 0.0 -0.0 27.1
2018-Feb-12 01:00N 11°41' W 096°20'0 0.0 -0.0 27.1
2018-Feb-12 00:00N 11°41' W 096°20'1 0.6 -0.0 27.3
2018-Feb-11 23:00N 11°41' W 096°20'1 1.2 -0.0 27.4
2018-Feb-11 22:30N 11°41' W 096°20'1 0.4 -0.0 27.4
2018-Feb-11 21:00N 11°41' W 096°19'1 0.6 -0.0 27.5
2018-Feb-11 20:00N 11°40' W 096°19'1 0.4 -0.0 27.6
2018-Feb-11 16:30N 11°39' W 096°19'0 0.0 -0.0 27.0
2018-Feb-11 16:00N 11°39' W 096°19'0 0.0 -0.0 27.0
2018-Feb-11 15:00N 11°39' W 096°19'1 1.2 -0.0 26.9
2018-Feb-11 14:30N 11°38' W 096°19'0 0.0 -0.0 26.8
2018-Feb-11 14:00N 11°38' W 096°19'0 0.0 -0.0 26.8
2018-Feb-11 13:30N 11°38' W 096°19'0 0.0 -0.0 26.8
2018-Feb-11 13:00N 11°38' W 096°19'1 0.6 -0.0 26.8
2018-Feb-11 12:00N 11°38' W 096°19'0 0.0 -0.0 26.8
2018-Feb-11 11:30N 11°38' W 096°19'1 0.6 -0.0 26.8
2018-Feb-11 10:00N 11°37' W 096°18'1 0.6 -0.0 26.8
2018-Feb-11 09:00N 11°37' W 096°18'2 0.3 -0.0 26.9
2018-Feb-11 04:00N 11°35' W 096°17'0 0.0 -0.0 26.9
2018-Feb-11 03:30N 11°35' W 096°17'1 0.8 -0.0 26.9
2018-Feb-11 02:30N 11°35' W 096°16'0 0.0 -0.0 26.9
2018-Feb-11 02:00N 11°35' W 096°16'0 0.0 -0.0 26.9
2018-Feb-11 01:30N 11°35' W 096°16'1 0.8 -0.0 27.0
2018-Feb-11 00:30N 11°34' W 096°16'1 0.6 -0.0 27.0
2018-Feb-10 23:30N 11°34' W 096°15'0 0.0 -0.0 27.0
2018-Feb-10 23:00N 11°34' W 096°15'1 0.6 -0.0 27.1
2018-Feb-10 22:00N 11°34' W 096°14'1 1.2 -0.0 27.1
2018-Feb-10 21:30N 11°34' W 096°14'0 0.0 -0.0 27.1
2018-Feb-10 20:30N 11°34' W 096°14'1 1.7 -0.0 27.1
2018-Feb-10 20:00N 11°34' W 096°13'1 0.3 -0.0 27.0
2018-Feb-10 17:00N 11°34' W 096°13'1 1.2 -0.0 26.9
2018-Feb-10 16:30N 11°34' W 096°12'0 0.0 -0.0 26.9
2018-Feb-10 16:00N 11°34' W 096°12'0 0.0 -0.0 26.9
2018-Feb-10 14:30N 11°34' W 096°12'0 0.0 -0.0 26.8
2018-Feb-10 13:30N 11°34' W 096°12'0 0.0 -0.0 26.8
2018-Feb-10 12:00N 11°34' W 096°12'0 0.0 -0.0 26.8
2018-Feb-10 11:30N 11°34' W 096°12'0 0.0 -0.0 26.8
2018-Feb-10 10:30N 11°34' W 096°12'0 0.0 -0.0 26.9
2018-Feb-10 10:00N 11°34' W 096°12'1 0.8 -0.0 26.9
2018-Feb-10 09:00N 11°34' W 096°13'0 0.0 -0.0 26.9
2018-Feb-10 07:30N 11°34' W 096°13'1 0.4 -0.0 26.9
2018-Feb-10 04:30N 11°32' W 096°12'1 0.6 -0.0 26.9
2018-Feb-10 03:30N 11°32' W 096°12'0 0.0 -0.0 26.9
2018-Feb-10 03:00N 11°32' W 096°12'0 0.0 -0.0 26.9
2018-Feb-10 02:00N 11°32' W 096°12'1 0.8 -0.0 26.9
2018-Feb-10 01:00N 11°31' W 096°11'0 0.0 -0.0 26.9
2018-Feb-10 00:31N 11°31' W 096°11'0 0.0 -0.0 26.9
2018-Feb-10 00:30N 11°31' W 096°11'0 0.0 -0.0 26.9
2018-Feb-10 00:00N 11°31' W 096°11'0 0.0 -0.0 26.9
2018-Feb-09 23:00N 11°31' W 096°11'1 0.6 -0.0 27.0
2018-Feb-09 22:00N 11°31' W 096°11'1 1.2 -0.0 27.0
2018-Feb-09 21:30N 11°31' W 096°11'1 0.2 -0.0 27.0
2018-Feb-09 16:30N 11°30' W 096°10'   -0.0 26.8

Dump ship's entire track history